Time;durP1;ratioP1;P1;durP2;ratioP2;P2;SDS_P1;SDS_P2;PMS_P1;PMS_P2;Temp;Humidity;BMP_temperature;BMP_pressure;BME280_temperature;BME280_humidity;BME280_pressure;Samples;Min_cycle;Max_cycle;Signal;HPM_P1;HPM_P2
2023/10/15 00:00:18;;;;;;;23.15;3.72;;;5.10;99.90;;;;;;5077674;28;20040;-84
2023/10/15 00:02:47;;;;;;;8.43;3.40;;;5.10;99.90;;;;;;5066412;28;20061;-84
2023/10/15 00:05:15;;;;;;;16.70;3.35;;;5.00;99.90;;;;;;5067927;28;20478;-84
2023/10/15 00:07:42;;;;;;;10.82;3.53;;;5.10;99.90;;;;;;5094429;28;20032;-84
2023/10/15 00:10:10;;;;;;;11.43;3.13;;;5.10;99.90;;;;;;5093145;28;20448;-84
2023/10/15 00:12:39;;;;;;;14.43;3.20;;;5.10;99.90;;;;;;5062189;28;20110;-84
2023/10/15 00:15:25;;;;;;;9.30;2.83;;;5.00;99.90;;;;;;5080690;28;20052;-84
2023/10/15 00:18:09;;;;;;;11.15;3.38;;;4.90;99.90;;;;;;5087603;28;20024;-84
2023/10/15 00:20:36;;;;;;;12.05;4.38;;;4.60;99.90;;;;;;5083519;28;20035;-85
2023/10/15 00:23:05;;;;;;;14.05;3.22;;;4.40;99.90;;;;;;5119111;27;20478;-84
2023/10/15 00:25:41;;;;;;;14.90;3.38;;;4.30;99.90;;;;;;5085640;28;20032;-84
2023/10/15 00:28:15;;;;;;;18.77;4.10;;;4.10;99.90;;;;;;5070947;28;20042;-84
2023/10/15 00:30:42;;;;;;;14.73;3.97;;;4.00;99.90;;;;;;5090979;28;20035;-84
2023/10/15 00:33:14;;;;;;;12.50;3.40;;;4.10;99.90;;;;;;5081169;28;20020;-84
2023/10/15 00:35:44;;;;;;;10.15;3.20;;;4.10;99.90;;;;;;5089316;28;20027;-84
2023/10/15 00:38:16;;;;;;;10.80;3.80;;;4.10;99.90;;;;;;5055550;28;20041;-84
2023/10/15 00:40:42;;;;;;;13.98;3.72;;;3.90;99.90;;;;;;5077713;28;20045;-84
2023/10/15 00:43:09;;;;;;;13.07;3.55;;;3.80;99.90;;;;;;5080841;28;20035;-84
2023/10/15 00:45:39;;;;;;;8.68;3.58;;;3.70;99.90;;;;;;5084513;28;20034;-84
2023/10/15 00:50:38;;;;;;;13.75;4.03;;;3.70;99.90;;;;;;5081797;28;20048;-84
2023/10/15 00:53:21;;;;;;;16.00;4.40;;;3.70;99.90;;;;;;5079206;28;20032;-83
2023/10/15 00:55:51;;;;;;;14.07;4.55;;;3.70;99.90;;;;;;5068249;28;20032;-83
2023/10/15 01:03:54;;;;;;;21.23;4.65;;;3.80;99.90;;;;;;5084844;28;20530;-84
2023/10/15 01:09:09;;;;;;;15.07;4.43;;;3.80;99.90;;;;;;5109295;28;20036;-84
2023/10/15 01:11:50;;;;;;;10.98;4.78;;;3.90;99.90;;;;;;5099661;28;20034;-84
2023/10/15 01:14:25;;;;;;;;;;;3.90;99.90;;;;;;5098580;28;20035;-84
2023/10/15 01:16:51;;;;;;;9.43;3.95;;;3.80;99.90;;;;;;5075468;28;20252;-84
2023/10/15 01:19:19;;;;;;;15.52;3.88;;;3.80;99.90;;;;;;5082247;28;20065;-84
2023/10/15 01:22:01;;;;;;;12.82;4.00;;;3.70;99.90;;;;;;5077074;28;20039;-84
2023/10/15 01:28:38;;;;;;;14.90;4.55;;;3.50;99.90;;;;;;5073906;28;20485;-84
2023/10/15 01:31:07;;;;;;;17.75;4.40;;;3.40;99.90;;;;;;5106170;28;20028;-83
2023/10/15 01:33:46;;;;;;;12.15;4.78;;;3.40;99.90;;;;;;5084601;28;20028;-83
2023/10/15 01:36:18;;;;;;;17.33;4.40;;;3.40;99.90;;;;;;5096481;28;20386;-84
2023/10/15 01:38:44;;;;;;;17.95;4.55;;;3.30;99.90;;;;;;5100607;28;20035;-84
2023/10/15 01:41:13;;;;;;;19.27;4.78;;;3.30;99.90;;;;;;5120779;27;20043;-84
2023/10/15 01:43:40;;;;;;;10.45;4.80;;;3.30;99.90;;;;;;5100638;28;20030;-84
2023/10/15 01:46:12;;;;;;;14.25;4.70;;;3.30;99.90;;;;;;5086632;28;20061;-84
2023/10/15 01:48:40;;;;;;;13.60;4.20;;;3.30;99.90;;;;;;5074324;28;20478;-84
2023/10/15 01:51:06;;;;;;;12.57;5.03;;;3.30;99.90;;;;;;5082875;28;20028;-84
2023/10/15 01:53:37;;;;;;;9.73;4.45;;;3.20;99.90;;;;;;5080761;28;20459;-84
2023/10/15 01:56:04;;;;;;;19.13;5.07;;;3.20;99.90;;;;;;5061339;28;20030;-83
2023/10/15 01:58:31;;;;;;;13.23;5.10;;;3.10;99.90;;;;;;5114793;27;20036;-84
2023/10/15 02:01:08;;;;;;;15.10;4.28;;;3.10;99.90;;;;;;5094471;28;20024;-84
2023/10/15 02:03:34;;;;;;;11.98;4.32;;;2.90;99.90;;;;;;5069627;28;20032;-83
2023/10/15 02:06:07;;;;;;;15.32;4.95;;;2.90;99.90;;;;;;5079921;28;20016;-84
2023/10/15 02:08:36;;;;;;;14.10;5.20;;;2.80;99.90;;;;;;5074477;28;20130;-84
2023/10/15 02:11:15;;;;;;;15.27;5.07;;;2.80;99.90;;;;;;5082486;28;20028;-84
2023/10/15 02:13:44;;;;;;;14.40;5.38;;;2.70;99.90;;;;;;5066053;28;20641;-84
2023/10/15 02:16:15;;;;;;;13.90;4.50;;;2.70;99.90;;;;;;5085018;28;20047;-83
2023/10/15 02:18:44;;;;;;;17.52;5.40;;;2.70;99.90;;;;;;5090494;28;20043;-83
2023/10/15 02:21:16;;;;;;;11.63;4.43;;;2.90;99.90;;;;;;5087482;28;20043;-84
2023/10/15 02:23:52;;;;;;;14.70;7.25;;;3.00;99.90;;;;;;5108587;28;20051;-84
2023/10/15 02:26:23;;;;;;;12.88;5.00;;;3.20;99.90;;;;;;5070832;28;20118;-84
2023/10/15 02:28:53;;;;;;;20.25;6.05;;;3.30;99.90;;;;;;5107106;28;20058;-84
2023/10/15 02:34:41;;;;;;;;;;;3.60;99.90;;;;;;5103408;28;20050;-84
2023/10/15 02:37:11;;;;;;;20.10;5.78;;;3.70;99.90;;;;;;5101318;28;20267;-84
2023/10/15 02:39:44;;;;;;;9.88;5.15;;;3.80;99.90;;;;;;5087009;28;20055;-84
2023/10/15 02:42:10;;;;;;;16.23;5.90;;;3.90;99.90;;;;;;5086723;28;20073;-84
2023/10/15 02:44:38;;;;;;;21.83;5.10;;;4.00;99.90;;;;;;5082538;28;20031;-83
2023/10/15 02:47:19;;;;;;;17.58;4.97;;;4.10;99.90;;;;;;5087302;28;20028;-84
2023/10/15 02:50:04;;;;;;;13.18;4.68;;;4.20;99.90;;;;;;5083589;28;20042;-84
2023/10/15 02:52:43;;;;;;;17.65;5.80;;;4.30;99.90;;;;;;5078116;28;20028;-84
2023/10/15 02:55:11;;;;;;;13.23;5.97;;;4.30;99.90;;;;;;5085135;28;20028;-84
2023/10/15 02:57:43;;;;;;;19.30;6.00;;;4.30;99.90;;;;;;5081713;28;20474;-84
2023/10/15 03:00:28;;;;;;;13.25;5.50;;;4.40;99.90;;;;;;5087646;28;20032;-84
2023/10/15 03:02:55;;;;;;;16.65;6.28;;;4.40;99.90;;;;;;5099654;28;20080;-84
2023/10/15 03:05:30;;;;;;;20.67;6.15;;;4.60;99.90;;;;;;5085397;28;20028;-84
2023/10/15 03:07:59;;;;;;;18.33;6.50;;;4.70;99.90;;;;;;5084955;28;20475;-83
2023/10/15 03:13:32;;;;;;;23.50;5.68;;;4.80;99.90;;;;;;5033391;28;20044;-84
2023/10/15 03:16:07;;;;;;;10.57;4.95;;;4.90;99.90;;;;;;5026646;28;20021;-84
2023/10/15 03:18:34;;;;;;;13.00;5.28;;;4.90;99.90;;;;;;5043894;28;20055;-84
2023/10/15 03:21:37;;;;;;;20.08;6.65;;;5.00;99.90;;;;;;5085357;28;20024;-84
2023/10/15 03:23:57;;;;;;;;;;;5.00;99.90;;;;;;5081048;28;20555;-84
2023/10/15 03:26:30;;;;;;;20.17;5.28;;;5.00;99.90;;;;;;5080146;28;19911;-83
2023/10/15 03:28:58;;;;;;;15.70;5.45;;;5.00;99.90;;;;;;5084396;28;20031;-84
2023/10/15 03:31:27;;;;;;;17.05;6.20;;;4.90;99.90;;;;;;5081911;28;20082;-84
2023/10/15 03:36:30;;;;;;;16.73;6.30;;;5.00;99.90;;;;;;5120281;27;20401;-84
2023/10/15 03:38:58;;;;;;;16.23;7.40;;;5.10;99.90;;;;;;5125127;27;20060;-84
2023/10/15 03:41:34;;;;;;;17.08;7.78;;;5.10;99.90;;;;;;5084070;28;20024;-84
2023/10/15 03:44:04;;;;;;;25.95;9.77;;;5.10;99.90;;;;;;5098128;28;20042;-84
2023/10/15 03:47:05;;;;;;;23.83;7.85;;;5.10;99.90;;;;;;5072948;28;20036;-84
2023/10/15 03:49:32;;;;;;;28.20;10.43;;;5.10;99.90;;;;;;5056587;28;20055;-83
2023/10/15 03:51:58;;;;;;;16.50;7.70;;;5.10;99.90;;;;;;5088338;28;20075;-85
2023/10/15 03:54:24;;;;;;;21.73;7.13;;;5.00;99.90;;;;;;5079447;28;20536;-84
2023/10/15 03:56:52;;;;;;;17.38;7.30;;;5.10;99.90;;;;;;5090707;28;20024;-84
2023/10/15 03:59:20;;;;;;;18.20;6.40;;;5.10;99.90;;;;;;5102745;28;20043;-83
2023/10/15 04:01:49;;;;;;;20.05;6.63;;;5.10;99.90;;;;;;5102577;28;20024;-84
2023/10/15 04:04:16;;;;;;;18.30;7.40;;;5.10;99.90;;;;;;5077412;28;20387;-84
2023/10/15 04:06:45;;;;;;;16.25;6.57;;;5.00;99.90;;;;;;5102824;28;20019;-84
2023/10/15 04:09:13;;;;;;;14.18;7.95;;;5.00;99.90;;;;;;5078758;28;20036;-84
2023/10/15 04:11:44;;;;;;;21.85;7.45;;;5.00;99.90;;;;;;5070836;28;20081;-84
2023/10/15 04:14:30;;;;;;;27.15;9.02;;;5.00;99.90;;;;;;5102451;28;20128;-84
2023/10/15 04:17:39;;;;;;;23.05;7.55;;;5.00;99.90;;;;;;5075238;28;20690;-85
2023/10/15 04:20:06;;;;;;;24.83;5.57;;;5.10;99.90;;;;;;5096387;28;20047;-84
2023/10/15 04:22:51;;;;;;;20.20;5.97;;;5.20;99.90;;;;;;5064178;28;20024;-84
2023/10/15 04:25:24;;;;;;;22.60;5.53;;;5.30;99.90;;;;;;5056272;28;20036;-83
2023/10/15 04:27:51;;;;;;;15.65;6.38;;;5.20;99.90;;;;;;5072315;28;20507;-84
2023/10/15 04:30:17;;;;;;;25.48;8.30;;;5.20;99.90;;;;;;5076248;28;20028;-84
2023/10/15 04:35:11;;;;;;;16.55;7.82;;;5.40;99.90;;;;;;5084200;28;20043;-84
2023/10/15 04:37:37;;;;;;;18.02;6.10;;;5.40;99.90;;;;;;5071179;28;20050;-84
2023/10/15 04:40:05;;;;;;;17.23;5.15;;;5.40;99.90;;;;;;5098577;28;20023;-84
2023/10/15 04:42:37;;;;;;;19.25;5.15;;;5.30;99.90;;;;;;5098977;28;20036;-84
2023/10/15 04:45:12;;;;;;;19.08;5.53;;;5.30;99.90;;;;;;5100679;28;20027;-84
2023/10/15 04:47:53;;;;;;;27.75;6.05;;;5.10;99.90;;;;;;5064750;28;20487;-84
2023/10/15 04:50:19;;;;;;;13.55;5.95;;;5.10;99.90;;;;;;5079721;28;20035;-84
2023/10/15 04:52:45;;;;;;;19.50;5.88;;;5.10;99.90;;;;;;5079105;28;20024;-84
2023/10/15 04:55:29;;;;;;;20.30;5.57;;;5.10;99.90;;;;;;5064967;28;20536;-84
2023/10/15 04:57:55;;;;;;;23.52;6.10;;;5.10;99.90;;;;;;5081520;28;20043;-84
2023/10/15 05:00:25;;;;;;;12.00;5.60;;;5.00;99.90;;;;;;5084576;28;20402;-84
2023/10/15 05:02:52;;;;;;;14.23;5.75;;;5.00;99.90;;;;;;5065762;28;20131;-84
2023/10/15 05:05:17;;;;;;;9.95;5.22;;;4.80;99.90;;;;;;5109730;28;20035;-84
2023/10/15 05:07:43;;;;;;;27.33;7.03;;;4.80;99.90;;;;;;5050551;28;20066;-84
2023/10/15 05:10:09;;;;;;;28.58;7.35;;;4.80;99.90;;;;;;5059871;28;20028;-84
2023/10/15 05:12:35;;;;;;;20.45;7.63;;;4.80;99.90;;;;;;5077421;28;20019;-84
2023/10/15 05:15:01;;;;;;;19.92;7.15;;;5.00;99.90;;;;;;5059490;28;20534;-84
2023/10/15 05:17:26;;;;;;;18.13;6.32;;;5.20;99.90;;;;;;5061404;28;20428;-83
2023/10/15 05:19:53;;;;;;;32.85;7.00;;;5.30;99.90;;;;;;5081231;28;20534;-85
2023/10/15 05:22:19;;;;;;;18.83;6.05;;;5.40;99.90;;;;;;5078961;28;20020;-84
2023/10/15 05:24:45;;;;;;;24.20;7.22;;;5.50;99.90;;;;;;5062293;28;20647;-84
2023/10/15 05:27:12;;;;;;;18.05;5.07;;;5.60;99.90;;;;;;5080553;28;20119;-84
2023/10/15 05:29:39;;;;;;;23.70;5.55;;;5.70;99.90;;;;;;5079580;28;20375;-84
2023/10/15 05:32:06;;;;;;;16.58;5.10;;;5.80;99.90;;;;;;5078725;28;20031;-84
2023/10/15 05:34:32;;;;;;;24.55;5.60;;;5.80;99.90;;;;;;5099589;28;20008;-85
2023/10/15 05:36:58;;;;;;;30.05;5.85;;;5.80;99.90;;;;;;5082193;28;20406;-84
2023/10/15 05:39:24;;;;;;;22.88;5.72;;;5.80;99.90;;;;;;5064114;28;20127;-84
2023/10/15 05:41:51;;;;;;;15.68;5.20;;;5.80;99.90;;;;;;5071416;28;20086;-84
2023/10/15 05:44:18;;;;;;;15.57;5.45;;;5.70;99.90;;;;;;5086601;28;20111;-84
2023/10/15 05:46:46;;;;;;;15.77;5.32;;;5.70;99.90;;;;;;5070001;28;20034;-84
2023/10/15 05:49:14;;;;;;;16.98;5.47;;;5.70;99.90;;;;;;5057039;28;20034;-84
2023/10/15 05:51:40;;;;;;;22.42;7.55;;;5.70;99.90;;;;;;5081955;28;20092;-85
2023/10/15 05:54:06;;;;;;;15.93;5.47;;;5.70;99.90;;;;;;5091446;28;20485;-84
2023/10/15 05:56:33;;;;;;;20.00;5.38;;;5.60;99.90;;;;;;5081113;28;20367;-84
2023/10/15 05:58:59;;;;;;;13.43;5.45;;;5.70;99.90;;;;;;5076054;28;20028;-85
2023/10/15 06:01:25;;;;;;;14.20;6.22;;;5.70;99.90;;;;;;5090514;28;20048;-84
2023/10/15 06:03:51;;;;;;;26.63;5.30;;;5.70;99.90;;;;;;5065251;28;20047;-84
2023/10/15 06:06:16;;;;;;;21.27;5.50;;;5.80;99.90;;;;;;5070708;28;20032;-84
2023/10/15 06:08:43;;;;;;;15.90;5.03;;;5.80;99.90;;;;;;5064324;28;20030;-84
2023/10/15 06:11:09;;;;;;;17.27;5.50;;;5.80;99.90;;;;;;5086727;28;20533;-84
2023/10/15 06:13:35;;;;;;;18.30;5.57;;;5.90;99.90;;;;;;5077416;28;20490;-84
2023/10/15 06:16:03;;;;;;;24.27;6.65;;;5.90;99.90;;;;;;5061027;28;20660;-84
2023/10/15 06:18:30;;;;;;;14.63;4.82;;;5.90;99.90;;;;;;5099308;28;20036;-84
2023/10/15 06:20:55;;;;;;;28.70;8.65;;;6.00;99.90;;;;;;5105306;28;20045;-84
2023/10/15 06:23:21;;;;;;;16.92;4.68;;;6.10;99.90;;;;;;5070940;28;20407;-84
2023/10/15 06:25:47;;;;;;;13.57;5.30;;;6.00;99.90;;;;;;5077251;28;20475;-84
2023/10/15 06:28:14;;;;;;;24.42;5.55;;;5.90;99.90;;;;;;5091043;28;20025;-84
2023/10/15 06:30:44;;;;;;;18.63;5.72;;;5.80;99.90;;;;;;5057476;28;20131;-84
2023/10/15 06:33:11;;;;;;;21.38;5.68;;;5.70;99.90;;;;;;5081018;28;20028;-84
2023/10/15 06:36:05;;;;;;;24.67;5.65;;;5.60;99.90;;;;;;5089053;28;20024;-84
2023/10/15 06:38:31;;;;;;;23.02;5.72;;;5.50;99.90;;;;;;5097489;28;20082;-84
2023/10/15 06:40:57;;;;;;;19.65;5.57;;;5.40;99.90;;;;;;5063250;28;20027;-84
2023/10/15 06:43:23;;;;;;;21.00;5.75;;;5.40;99.90;;;;;;5079142;28;20425;-85
2023/10/15 06:45:51;;;;;;;20.00;7.07;;;5.40;99.90;;;;;;5084320;28;20062;-84
2023/10/15 06:48:22;;;;;;;20.98;8.55;;;5.40;99.90;;;;;;5058859;28;20036;-84
2023/10/15 06:50:48;;;;;;;14.98;6.80;;;5.30;99.90;;;;;;5058331;28;20028;-84
2023/10/15 06:53:14;;;;;;;23.27;6.18;;;5.30;99.90;;;;;;5080609;28;20614;-81
2023/10/15 06:55:44;;;;;;;17.73;6.32;;;5.30;99.90;;;;;;5106563;27;20070;-85
2023/10/15 06:58:12;;;;;;;16.35;5.35;;;5.30;99.90;;;;;;5058846;28;20507;-84
2023/10/15 07:00:38;;;;;;;15.40;6.22;;;5.30;99.90;;;;;;5093034;28;20392;-84
2023/10/15 07:03:04;;;;;;;23.55;5.85;;;5.30;99.90;;;;;;5096050;28;20024;-84
2023/10/15 07:05:30;;;;;;;16.52;5.75;;;5.30;99.90;;;;;;5063310;28;20157;-85
2023/10/15 07:07:59;;;;;;;19.92;7.05;;;5.30;99.90;;;;;;5069935;28;20130;-84
2023/10/15 07:10:25;;;;;;;14.80;5.45;;;5.40;99.90;;;;;;5081412;28;20095;-84
2023/10/15 07:12:51;;;;;;;19.48;5.80;;;5.50;99.90;;;;;;5080605;28;20399;-85
2023/10/15 07:15:23;;;;;;;17.92;5.80;;;5.60;99.90;;;;;;5061172;28;20031;-84
2023/10/15 07:17:50;;;;;;;16.27;6.80;;;5.60;99.90;;;;;;5076438;28;20126;-84
2023/10/15 07:20:20;;;;;;;20.08;6.10;;;5.70;99.90;;;;;;5060761;28;20764;-85
2023/10/15 07:22:50;;;;;;;22.48;7.40;;;5.80;99.90;;;;;;5076893;28;20039;-84
2023/10/15 07:25:21;;;;;;;37.00;13.50;;;5.80;99.90;;;;;;5074371;28;20047;-84
2023/10/15 07:27:48;;;;;;;19.65;5.38;;;5.90;99.90;;;;;;5074337;28;20040;-85
2023/10/15 07:30:16;;;;;;;21.17;4.85;;;6.00;99.90;;;;;;5075623;28;20656;-84
2023/10/15 07:32:46;;;;;;;30.33;9.10;;;6.10;99.90;;;;;;5085415;28;20115;-84
2023/10/15 07:35:14;;;;;;;17.88;4.75;;;6.20;99.90;;;;;;5085595;28;20024;-85
2023/10/15 07:37:49;;;;;;;19.05;5.35;;;6.20;99.90;;;;;;5095779;28;20452;-84
2023/10/15 07:40:21;;;;;;;21.10;5.85;;;6.30;99.90;;;;;;5098195;28;20586;-84
2023/10/15 07:43:00;;;;;;;13.45;5.07;;;6.40;99.90;;;;;;5084105;28;20043;-85
2023/10/15 07:45:28;;;;;;;21.13;6.25;;;6.40;99.90;;;;;;5056530;28;20043;-84
2023/10/15 07:47:59;;;;;;;20.08;5.35;;;6.40;99.90;;;;;;5068901;28;20040;-85
2023/10/15 07:50:26;;;;;;;16.63;4.95;;;6.40;99.90;;;;;;5075298;28;20027;-85
2023/10/15 07:52:53;;;;;;;11.45;4.93;;;6.50;99.90;;;;;;5091540;28;20391;-84
2023/10/15 07:55:23;;;;;;;19.10;5.03;;;6.50;99.90;;;;;;5065491;28;20020;-84
2023/10/15 07:57:49;;;;;;;20.13;6.20;;;6.50;99.90;;;;;;5066278;28;20364;-85
2023/10/15 08:00:15;;;;;;;15.23;4.65;;;6.60;99.90;;;;;;5064353;28;20032;-84
2023/10/15 08:02:49;;;;;;;12.40;4.18;;;6.70;99.90;;;;;;5068205;28;20032;-85
2023/10/15 08:05:15;;;;;;;13.82;5.70;;;6.70;99.90;;;;;;5062971;28;20035;-85
2023/10/15 08:07:43;;;;;;;20.65;4.30;;;6.80;99.90;;;;;;5083977;28;20060;-84
2023/10/15 08:10:10;;;;;;;15.80;3.45;;;6.90;99.90;;;;;;5067524;28;20035;-85
2023/10/15 08:12:36;;;;;;;15.30;4.47;;;7.00;99.90;;;;;;5063853;28;20104;-84
2023/10/15 08:15:02;;;;;;;14.50;4.03;;;7.10;99.90;;;;;;5086029;28;20035;-85
2023/10/15 08:17:29;;;;;;;14.75;3.50;;;7.30;99.90;;;;;;5064870;28;20386;-84
2023/10/15 08:19:55;;;;;;;19.17;3.70;;;7.40;99.90;;;;;;5079517;28;20039;-84
2023/10/15 08:22:21;;;;;;;15.63;3.45;;;7.30;99.90;;;;;;5076634;28;20112;-84
2023/10/15 08:24:47;;;;;;;14.60;3.08;;;7.30;99.90;;;;;;5076085;28;20380;-84
2023/10/15 08:27:13;;;;;;;20.67;3.45;;;7.20;99.90;;;;;;5059520;28;20032;-84
2023/10/15 08:29:42;;;;;;;19.50;4.05;;;7.20;99.90;;;;;;5059779;28;20108;-84
2023/10/15 08:32:17;;;;;;;6.75;2.85;;;7.30;99.90;;;;;;5091257;28;20128;-84
2023/10/15 08:34:44;;;;;;;13.23;3.38;;;7.30;99.90;;;;;;5072811;28;20031;-84
2023/10/15 08:37:10;;;;;;;10.75;3.03;;;7.30;99.90;;;;;;5068400;28;20531;-84
2023/10/15 08:39:38;;;;;;;9.90;2.85;;;7.30;99.90;;;;;;5095619;28;20024;-84
2023/10/15 08:42:11;;;;;;;9.80;2.85;;;7.30;99.90;;;;;;5070823;28;20624;-84
2023/10/15 08:44:40;;;;;;;9.38;2.72;;;7.40;99.90;;;;;;5082069;28;20036;-84
2023/10/15 08:47:26;;;;;;;17.13;3.13;;;7.60;99.90;;;;;;5080953;28;20884;-85
2023/10/15 08:50:10;;;;;;;10.63;3.22;;;7.70;99.90;;;;;;5102024;28;20054;-84
2023/10/15 08:52:37;;;;;;;11.40;2.83;;;7.80;99.90;;;;;;5080742;28;20414;-84
2023/10/15 08:55:06;;;;;;;9.55;3.20;;;7.90;99.90;;;;;;5087184;28;20024;-84
2023/10/15 08:57:32;;;;;;;16.35;3.00;;;8.00;99.90;;;;;;5065431;28;20390;-85
2023/10/15 08:59:59;;;;;;;10.02;2.85;;;8.10;99.90;;;;;;5081604;28;20073;-84
2023/10/15 09:02:27;;;;;;;15.10;2.50;;;8.30;99.90;;;;;;5095005;28;20452;-84
2023/10/15 09:04:53;;;;;;;8.25;2.83;;;8.60;99.90;;;;;;5066801;28;20480;-85
2023/10/15 09:07:18;;;;;;;6.07;2.50;;;8.70;99.90;;;;;;5075738;28;20048;-84
2023/10/15 09:09:45;;;;;;;8.95;2.85;;;8.80;99.90;;;;;;5085181;28;20051;-84
2023/10/15 09:12:13;;;;;;;8.65;2.72;;;9.10;99.90;;;;;;5078201;28;20052;-85
2023/10/15 09:14:42;;;;;;;10.15;2.88;;;9.30;99.90;;;;;;5120243;27;20051;-84
2023/10/15 09:17:17;;;;;;;9.13;2.78;;;9.60;99.90;;;;;;5062626;28;20024;-85
2023/10/15 09:19:46;;;;;;;11.55;3.38;;;9.50;99.90;;;;;;5073985;28;20028;-86
2023/10/15 09:22:15;;;;;;;19.08;2.53;;;9.40;99.90;;;;;;5092923;28;20081;-83
2023/10/15 09:24:45;;;;;;;11.05;2.40;;;9.40;99.90;;;;;;5082331;28;20028;-85
2023/10/15 09:27:12;;;;;;;15.32;3.50;;;9.70;99.90;;;;;;5067010;28;20140;-85
2023/10/15 09:29:38;;;;;;;11.45;2.72;;;10.10;99.90;;;;;;5070304;28;20024;-84
2023/10/15 09:32:05;;;;;;;11.85;2.53;;;10.00;99.90;;;;;;5101444;28;20366;-85
2023/10/15 09:34:38;;;;;;;11.13;2.70;;;10.30;99.90;;;;;;5083882;28;20017;-85
2023/10/15 09:37:09;;;;;;;10.30;3.00;;;10.60;99.90;;;;;;5077186;28;20031;-86
2023/10/15 09:39:35;;;;;;;10.77;3.00;;;10.30;99.90;;;;;;5073377;28;20383;-85
2023/10/15 09:42:04;;;;;;;14.90;3.72;;;11.00;99.90;;;;;;5071703;28;20032;-85
2023/10/15 09:44:35;;;;;;;21.35;8.77;;;11.40;99.90;;;;;;5048432;28;20117;-85
2023/10/15 09:47:01;;;;;;;71.28;27.90;;;12.40;99.90;;;;;;5089021;28;20069;-85
2023/10/15 09:49:31;;;;;;;25.50;10.68;;;12.20;99.90;;;;;;5058720;28;20165;-85
2023/10/15 09:52:01;;;;;;;21.35;5.70;;;11.40;99.90;;;;;;5083873;28;20094;-85
2023/10/15 09:54:30;;;;;;;14.68;3.03;;;10.40;99.90;;;;;;5064567;28;20036;-83
2023/10/15 09:56:57;;;;;;;16.65;5.78;;;9.10;99.90;;;;;;5076495;28;20016;-84
2023/10/15 09:59:24;;;;;;;12.82;3.60;;;8.10;99.90;;;;;;5057822;28;20042;-84
2023/10/15 10:01:53;;;;;;;15.55;3.10;;;7.40;99.90;;;;;;5058560;28;20020;-84
2023/10/15 10:04:52;;;;;;;10.35;3.30;;;7.10;99.90;;;;;;5083824;28;20028;-84
2023/10/15 10:08:09;;;;;;;12.55;3.10;;;6.90;99.90;;;;;;5087848;28;20028;-84
2023/10/15 10:10:59;;;;;;;16.55;3.72;;;7.30;99.90;;;;;;5068590;28;20391;-85
2023/10/15 10:14:00;;;;;;;11.85;2.97;;;8.60;99.90;;;;;;5074791;28;20126;-84
2023/10/15 10:16:28;;;;;;;8.10;2.35;;;10.00;99.90;;;;;;5083816;28;20024;-84
2023/10/15 10:18:55;;;;;;;6.22;1.92;;;10.80;99.90;;;;;;5057298;28;20499;-85
2023/10/15 10:21:22;;;;;;;6.60;2.15;;;11.60;99.90;;;;;;5071605;28;20089;-85
2023/10/15 10:23:53;;;;;;;5.57;1.70;;;11.50;99.90;;;;;;5111246;28;20028;-84
2023/10/15 10:26:19;;;;;;;14.63;3.92;;;10.70;99.90;;;;;;5084774;28;20039;-85
2023/10/15 10:28:46;;;;;;;7.20;1.80;;;10.00;99.90;;;;;;5075012;28;20029;-84
2023/10/15 10:31:13;;;;;;;17.42;5.32;;;9.50;99.90;;;;;;5088419;28;20039;-84
2023/10/15 10:33:50;;;;;;;13.90;5.32;;;9.00;99.90;;;;;;5116497;27;20024;-84
2023/10/15 10:36:17;;;;;;;9.02;2.85;;;8.70;99.90;;;;;;5093762;28;20035;-84
2023/10/15 10:39:13;;;;;;;8.75;2.38;;;9.00;99.90;;;;;;5103957;28;20155;-85
2023/10/15 10:41:40;;;;;;;6.05;2.45;;;9.40;99.90;;;;;;5075772;28;20059;-85
2023/10/15 10:44:12;;;;;;;21.27;6.07;;;9.50;99.90;;;;;;5119517;27;20502;-85
2023/10/15 10:46:43;;;;;;;7.78;2.42;;;9.60;99.90;;;;;;5073315;28;20032;-85
2023/10/15 10:49:13;;;;;;;8.20;1.77;;;9.70;99.90;;;;;;5104762;28;20104;-84
2023/10/15 10:51:40;;;;;;;9.00;2.10;;;9.40;99.90;;;;;;5068179;28;20505;-84
2023/10/15 10:54:06;;;;;;;8.70;3.60;;;9.00;99.90;;;;;;5085863;28;20028;-85
2023/10/15 10:56:40;;;;;;;10.35;3.40;;;8.90;99.90;;;;;;5068350;28;20650;-85
2023/10/15 10:59:11;;;;;;;8.30;2.30;;;8.90;99.90;;;;;;5081828;28;20060;-84
2023/10/15 11:01:39;;;;;;;9.07;2.97;;;8.90;99.90;;;;;;5097548;28;20118;-84
2023/10/15 11:04:11;;;;;;;14.93;3.78;;;8.80;99.90;;;;;;5079427;28;20035;-84
2023/10/15 11:10:05;;;;;;;20.27;2.85;;;9.10;99.90;;;;;;5097513;28;20421;-84
2023/10/15 11:12:31;;;;;;;10.80;2.67;;;8.90;99.90;;;;;;5069184;28;20480;-84
2023/10/15 11:14:57;;;;;;;10.75;1.98;;;8.70;99.90;;;;;;5088035;28;20028;-84
2023/10/15 11:17:23;;;;;;;10.68;3.58;;;8.70;99.90;;;;;;5066222;28;20525;-85
2023/10/15 11:19:58;;;;;;;13.40;2.28;;;9.00;99.90;;;;;;5101902;28;20086;-84
2023/10/15 11:26:11;;;;;;;5.50;1.48;;;9.50;99.90;;;;;;5088243;28;20035;-84
2023/10/15 11:28:37;;;;;;;5.40;2.15;;;9.80;99.90;;;;;;5076137;28;20388;-85
2023/10/15 11:31:04;;;;;;;11.80;4.25;;;10.20;99.90;;;;;;5087121;28;20074;-85
2023/10/15 11:33:29;;;;;;;5.05;2.28;;;11.10;99.90;;;;;;5075027;28;20028;-84
2023/10/15 11:36:49;;;;;;;9.85;1.95;;;11.70;99.90;;;;;;5085640;28;20475;-84
2023/10/15 11:39:19;;;;;;;5.85;1.20;;;11.80;99.90;;;;;;5095134;28;20470;-85
2023/10/15 11:41:51;;;;;;;3.95;1.45;;;12.00;99.90;;;;;;5090834;28;20027;-85
2023/10/15 11:44:25;;;;;;;2.05;1.42;;;11.90;99.90;;;;;;5068928;28;20162;-85
2023/10/15 11:46:55;;;;;;;7.57;2.42;;;11.40;99.90;;;;;;5084027;28;20027;-84
2023/10/15 11:49:22;;;;;;;9.25;1.60;;;11.00;99.90;;;;;;5078271;28;20032;-84
2023/10/15 11:51:50;;;;;;;4.30;1.48;;;11.00;99.90;;;;;;5085890;28;20019;-85
2023/10/15 11:54:16;;;;;;;2.35;1.10;;;10.80;99.90;;;;;;5097213;28;20107;-84
2023/10/15 11:56:50;;;;;;;5.72;1.63;;;10.50;99.90;;;;;;5121179;27;20072;-85
2023/10/15 11:59:16;;;;;;;3.92;1.35;;;10.00;99.90;;;;;;5099051;28;20036;-85
2023/10/15 12:01:44;;;;;;;8.48;2.40;;;9.50;99.90;;;;;;5078614;28;20028;-84
2023/10/15 12:04:11;;;;;;;5.95;1.98;;;8.80;99.90;;;;;;5062870;28;20042;-84
2023/10/15 12:06:38;;;;;;;5.22;1.60;;;8.10;99.90;;;;;;5065666;28;20398;-83
2023/10/15 12:09:12;;;;;;;8.95;2.05;;;7.60;99.90;;;;;;5054311;28;20097;-84
2023/10/15 12:11:39;;;;;;;11.95;5.22;;;7.30;99.90;;;;;;5081322;28;20054;-83
2023/10/15 12:14:05;;;;;;;10.65;4.97;;;7.00;99.90;;;;;;5060856;28;20039;-83
2023/10/15 12:16:31;;;;;;;9.38;3.10;;;6.70;99.90;;;;;;5061545;28;20024;-83
2023/10/15 12:18:57;;;;;;;4.40;1.80;;;6.60;99.90;;;;;;5070663;28;20039;-83
2023/10/15 12:21:23;;;;;;;9.40;3.97;;;7.00;99.90;;;;;;5059657;28;20494;-84
2023/10/15 12:23:48;;;;;;;6.38;2.47;;;7.70;99.90;;;;;;5076727;28;20471;-84
2023/10/15 12:26:14;;;;;;;8.10;3.67;;;8.50;99.90;;;;;;5089613;28;20107;-84
2023/10/15 12:28:47;;;;;;;7.18;1.10;;;8.90;99.90;;;;;;5082170;28;20042;-85
2023/10/15 12:31:13;;;;;;;2.60;1.30;;;9.10;99.90;;;;;;5077257;28;20028;-84
2023/10/15 12:33:39;;;;;;;6.05;1.50;;;9.40;99.90;;;;;;5110362;27;20024;-85
2023/10/15 12:36:09;;;;;;;3.83;1.90;;;9.40;99.90;;;;;;5075737;28;20067;-84
2023/10/15 12:38:35;;;;;;;3.67;1.27;;;9.50;99.90;;;;;;5107599;28;20036;-85
2023/10/15 12:41:04;;;;;;;3.38;1.48;;;9.70;99.90;;;;;;5075688;28;20032;-85
2023/10/15 12:43:31;;;;;;;5.00;1.92;;;9.70;99.90;;;;;;5074453;28;20081;-84
2023/10/15 12:45:57;;;;;;;7.18;2.55;;;10.00;99.90;;;;;;5075627;28;20055;-84
2023/10/15 12:48:23;;;;;;;10.85;4.32;;;10.00;99.90;;;;;;5108753;28;20059;-86
2023/10/15 12:50:50;;;;;;;4.45;1.48;;;10.30;99.90;;;;;;5057032;28;20105;-84
2023/10/15 12:53:16;;;;;;;2.25;1.05;;;10.60;99.90;;;;;;5108013;28;20032;-84
2023/10/15 12:55:44;;;;;;;7.07;1.20;;;10.90;99.90;;;;;;5069940;28;20086;-84
2023/10/15 12:58:10;;;;;;;2.92;0.80;;;10.90;99.90;;;;;;5067132;28;20482;-84
2023/10/15 13:00:43;;;;;;;4.55;1.70;;;11.00;99.90;;;;;;5055881;28;20032;-84
2023/10/15 13:03:09;;;;;;;3.10;1.00;;;11.00;99.90;;;;;;5068308;28;20437;-85
2023/10/15 13:05:35;;;;;;;5.13;1.27;;;10.90;99.90;;;;;;5054734;28;20021;-85
2023/10/15 13:08:01;;;;;;;3.25;0.88;;;10.70;99.90;;;;;;5083955;28;20033;-85
2023/10/15 13:10:27;;;;;;;1.55;0.70;;;10.50;99.90;;;;;;5074367;28;20028;-85
2023/10/15 13:13:31;;;;;;;0.88;0.50;;;10.40;99.90;;;;;;5092067;28;20375;-84
2023/10/15 13:15:57;;;;;;;2.70;0.80;;;10.30;99.90;;;;;;5067201;28;20032;-85
2023/10/15 13:18:23;;;;;;;1.65;0.88;;;10.00;99.90;;;;;;5081936;28;20039;-84
2023/10/15 13:20:49;;;;;;;2.75;1.20;;;9.80;99.90;;;;;;5067062;28;20031;-85
2023/10/15 13:23:24;;;;;;;5.18;1.02;;;9.70;99.90;;;;;;5106656;27;20375;-84
2023/10/15 13:25:50;;;;;;;3.13;1.02;;;9.40;99.90;;;;;;5085171;28;20161;-85
2023/10/15 13:28:15;;;;;;;6.00;1.02;;;9.40;99.90;;;;;;5062837;28;20078;-85
2023/10/15 13:30:41;;;;;;;6.15;1.05;;;9.50;99.90;;;;;;5078063;28;20121;-85
2023/10/15 13:33:09;;;;;;;3.65;1.10;;;9.70;99.90;;;;;;5062964;28;20121;-85
2023/10/15 13:35:35;;;;;;;2.13;1.25;;;10.10;99.90;;;;;;5073672;28;20474;-85